Time;durP1;ratioP1;P1;durP2;ratioP2;P2;SDS_P1;SDS_P2;PMS_P1;PMS_P2;Temp;Humidity;BMP_temperature;BMP_pressure;BME280_temperature;BME280_humidity;BME280_pressure;Samples;Min_cycle;Max_cycle;Signal;HPM_P1;HPM_P2
2021/07/05 00:01:44;0.00;0.00;0.62;0.00;0.00;0.62;2.90;2.70;;;28.10;38.60;;;;;;2277711;61;20355;-64
2021/07/05 00:04:11;0.00;0.00;0.62;0.00;0.00;0.62;5.00;3.10;;;28.10;38.60;;;;;;2278234;61;20451;-65
2021/07/05 00:06:38;0.00;0.00;0.62;0.00;0.00;0.62;3.90;3.00;;;28.10;38.70;;;;;;2277730;60;20362;-67
2021/07/05 00:09:05;0.00;0.00;0.62;0.00;0.00;0.62;4.30;3.20;;;28.10;38.70;;;;;;2277779;61;20350;-65
2021/07/05 00:11:32;0.00;0.00;0.62;0.00;0.00;0.62;4.77;3.20;;;28.10;38.70;;;;;;2278152;61;20364;-66
2021/07/05 00:13:59;0.00;0.00;0.62;0.00;0.00;0.62;3.17;2.80;;;28.10;38.70;;;;;;2277719;60;20410;-65
2021/07/05 00:16:26;0.00;0.00;0.62;0.00;0.00;0.62;3.03;2.73;;;28.10;39.30;;;;;;2277830;61;20398;-65
2021/07/05 00:18:54;0.00;0.00;0.62;0.00;0.00;0.62;3.40;3.00;;;28.00;38.50;;;;;;2278285;61;20351;-65
2021/07/05 00:21:21;0.00;0.00;0.62;0.00;0.00;0.62;3.40;3.07;;;28.00;38.50;;;;;;2277592;60;20591;-64
2021/07/05 00:23:48;0.00;0.00;0.62;0.00;0.00;0.62;5.43;3.57;;;28.00;38.50;;;;;;2277791;60;20382;-65
2021/07/05 00:26:14;0.00;0.00;0.62;0.00;0.00;0.62;3.20;2.90;;;27.90;38.40;;;;;;2278173;61;20354;-66
2021/07/05 00:28:41;0.00;0.00;0.62;0.00;0.00;0.62;5.10;2.70;;;27.90;38.50;;;;;;2277658;61;20351;-66
2021/07/05 00:31:07;0.00;0.00;0.62;0.00;0.00;0.62;3.33;2.80;;;27.80;38.50;;;;;;2277653;61;20362;-63
2021/07/05 00:33:36;0.00;0.00;0.62;0.00;0.00;0.62;4.33;3.20;;;27.70;38.40;;;;;;2278207;61;20742;-67
2021/07/05 00:36:04;0.00;0.00;0.62;0.00;0.00;0.62;6.23;3.30;;;27.70;38.50;;;;;;2277609;61;20402;-66
2021/07/05 00:38:31;0.00;0.00;0.62;0.00;0.00;0.62;3.80;2.87;;;27.60;38.60;;;;;;2277748;61;20375;-66
2021/07/05 00:40:58;0.00;0.00;0.62;0.00;0.00;0.62;3.30;3.00;;;27.60;38.60;;;;;;2278207;61;20556;-66
2021/07/05 00:43:25;0.00;0.00;0.62;0.00;0.00;0.62;4.10;3.07;;;27.50;38.60;;;;;;2277667;61;20604;-64
2021/07/05 00:45:51;0.00;0.00;0.62;0.00;0.00;0.62;4.20;2.70;;;27.50;38.70;;;;;;2277996;61;20351;-67
2021/07/05 00:48:18;0.00;0.00;0.62;0.00;0.00;0.62;5.07;3.13;;;27.40;38.70;;;;;;2277943;61;20772;-66
2021/07/05 00:50:44;0.00;0.00;0.62;0.00;0.00;0.62;5.40;3.27;;;27.40;38.80;;;;;;2277697;61;20684;-67
2021/07/05 00:53:12;0.00;0.00;0.62;0.00;0.00;0.62;4.63;3.17;;;27.40;38.90;;;;;;2277593;61;20475;-67
2021/07/05 00:55:39;0.00;0.00;0.62;0.00;0.00;0.62;4.47;2.63;;;27.30;38.90;;;;;;2278058;61;20371;-65
2021/07/05 00:58:06;0.00;0.00;0.62;0.00;0.00;0.62;3.30;3.00;;;27.30;38.90;;;;;;2277997;61;20415;-66
2021/07/05 01:00:32;0.00;0.00;0.62;0.00;0.00;0.62;7.10;3.00;;;27.20;39.00;;;;;;2277606;61;20628;-67
2021/07/05 01:02:59;0.00;0.00;0.62;0.00;0.00;0.62;4.53;2.63;;;27.20;39.00;;;;;;2277783;60;20414;-65
2021/07/05 01:05:26;0.00;0.00;0.62;0.00;0.00;0.62;5.20;3.20;;;27.20;39.00;;;;;;2277874;61;20343;-67
2021/07/05 01:07:53;0.00;0.00;0.62;0.00;0.00;0.62;2.70;2.20;;;27.20;39.00;;;;;;2277534;61;20363;-67
2021/07/05 01:10:23;0.00;0.00;0.62;0.00;0.00;0.62;3.10;2.80;;;27.10;38.90;;;;;;2277780;61;20682;-66
2021/07/05 01:12:52;0.00;0.00;0.62;0.00;0.00;0.62;2.73;2.50;;;27.10;39.00;;;;;;2277668;60;20387;-67
2021/07/05 01:15:21;0.00;0.00;0.62;0.00;0.00;0.62;4.20;3.17;;;27.10;39.00;;;;;;2277478;61;20455;-66
2021/07/05 01:17:49;0.00;0.00;0.62;0.00;0.00;0.62;6.57;2.93;;;27.10;39.00;;;;;;2278007;61;20609;-65
2021/07/05 01:20:18;0.00;0.00;0.62;0.00;0.00;0.62;3.83;2.90;;;27.10;39.10;;;;;;2277778;61;20347;-67
2021/07/05 01:22:47;0.00;0.00;0.62;0.00;0.00;0.62;3.70;2.53;;;27.10;39.10;;;;;;2277395;61;20375;-67
2021/07/05 01:25:17;0.00;0.00;0.62;0.00;0.00;0.62;3.13;2.83;;;27.10;39.10;;;;;;2277984;61;20657;-66
2021/07/05 01:27:44;0.00;0.00;0.62;0.00;0.00;0.62;3.80;3.27;;;27.10;39.00;;;;;;2277264;61;20355;-67
2021/07/05 01:30:14;0.00;0.00;0.62;0.00;0.00;0.62;3.30;3.00;;;27.10;39.00;;;;;;2277371;61;20426;-63
2021/07/05 01:32:41;0.00;0.00;0.62;0.00;0.00;0.62;2.90;2.70;;;27.10;39.00;;;;;;2277853;61;20781;-66
2021/07/05 01:35:08;0.00;0.00;0.62;0.00;0.00;0.62;2.70;2.50;;;27.10;39.00;;;;;;2277221;60;20379;-64
2021/07/05 01:37:35;0.00;0.00;0.62;0.00;0.00;0.62;4.60;3.40;;;27.20;39.10;;;;;;2277479;61;20358;-65
2021/07/05 01:40:07;0.00;0.00;0.62;0.00;0.00;0.62;3.83;3.43;;;27.20;39.00;;;;;;2277981;61;20385;-64
2021/07/05 01:42:34;0.00;0.00;0.62;0.00;0.00;0.62;5.93;3.40;;;27.20;39.10;;;;;;2276953;61;20375;-66
2021/07/05 01:45:02;0.00;0.00;0.62;0.00;0.00;0.62;5.03;4.07;;;27.20;39.00;;;;;;2277566;60;20617;-64
2021/07/05 01:47:29;0.00;0.00;0.62;0.00;0.00;0.62;4.47;3.93;;;27.10;38.90;;;;;;2277948;61;20357;-66
2021/07/05 01:49:55;0.00;0.00;0.62;0.00;0.00;0.62;3.97;3.60;;;27.10;38.90;;;;;;2277521;61;20359;-65
2021/07/05 01:52:22;0.00;0.00;0.62;0.00;0.00;0.62;4.50;4.10;;;27.10;38.90;;;;;;2276768;61;20730;-65
2021/07/05 01:54:48;0.00;0.00;0.62;0.00;0.00;0.62;5.40;4.90;;;27.10;38.90;;;;;;2277924;61;20359;-67
2021/07/05 01:57:25;0.00;0.00;0.62;0.00;0.00;0.62;5.37;4.83;;;27.10;39.00;;;;;;2277192;61;20362;-64
2021/07/05 01:59:54;0.00;0.00;0.62;0.00;0.00;0.62;5.77;5.27;;;27.00;38.90;;;;;;2277412;61;20444;-65
2021/07/05 02:02:22;0.00;0.00;0.62;0.00;0.00;0.62;6.37;5.33;;;27.00;39.00;;;;;;2277836;60;20739;-64
2021/07/05 02:04:49;0.00;0.00;0.62;0.00;0.00;0.62;5.70;5.10;;;26.90;39.00;;;;;;2277687;61;20382;-64
2021/07/05 02:07:16;0.00;0.00;0.62;0.00;0.00;0.62;6.90;5.00;;;26.90;39.70;;;;;;2277352;61;20431;-65
2021/07/05 02:09:43;0.00;0.00;0.62;0.00;0.00;0.62;6.77;6.03;;;26.80;39.10;;;;;;2277862;61;20358;-64
2021/07/05 02:12:10;0.00;0.00;0.62;0.00;0.00;0.62;5.37;4.87;;;26.80;39.30;;;;;;2276888;60;20735;-67
2021/07/05 02:14:40;0.00;0.00;0.62;0.00;0.00;0.62;6.00;5.50;;;26.70;39.20;;;;;;2277248;61;20344;-65
2021/07/05 02:17:09;0.00;0.00;0.62;0.00;0.00;0.62;4.47;4.03;;;26.70;39.40;;;;;;2277976;60;20742;-67
2021/07/05 02:19:36;0.00;0.00;0.62;0.00;0.00;0.62;5.73;4.70;;;26.70;39.50;;;;;;2277294;60;20354;-67
2021/07/05 02:22:04;0.00;0.00;0.62;0.00;0.00;0.62;4.87;4.47;;;26.60;39.50;;;;;;2277235;61;20362;-65
2021/07/05 02:24:31;0.00;0.00;0.62;0.00;0.00;0.62;8.60;4.50;;;26.60;39.60;;;;;;2277992;61;20370;-65
2021/07/05 02:26:58;0.00;0.00;0.62;0.00;0.00;0.62;7.00;5.10;;;26.60;39.60;;;;;;2277325;61;20676;-64
2021/07/05 02:29:24;0.00;0.00;0.62;0.00;0.00;0.62;5.33;4.57;;;26.60;39.70;;;;;;2277381;61;20359;-66
2021/07/05 02:31:52;0.00;0.00;0.62;0.00;0.00;0.62;4.60;4.20;;;26.60;39.70;;;;;;2277801;61;20387;-63
2021/07/05 02:34:19;0.00;0.00;0.62;0.00;0.00;0.62;4.57;4.17;;;26.60;39.70;;;;;;2277385;61;20714;-63
2021/07/05 02:36:45;0.00;0.00;0.62;0.00;0.00;0.62;6.10;4.63;;;26.60;39.60;;;;;;2277318;60;20391;-66
2021/07/05 02:39:12;0.00;0.00;0.62;0.00;0.00;0.62;5.37;4.40;;;26.60;39.60;;;;;;2277960;61;20356;-64
2021/07/05 02:41:39;0.00;0.00;0.62;0.00;0.00;0.62;6.93;5.00;;;26.60;39.60;;;;;;2277327;61;20339;-68
2021/07/05 02:44:05;0.00;0.00;0.62;0.00;0.00;0.62;8.57;6.40;;;26.60;39.50;;;;;;2277208;61;20367;-64
2021/07/05 02:46:32;0.00;0.00;0.62;0.00;0.00;0.62;5.37;4.87;;;26.60;39.50;;;;;;2277914;60;20348;-63
2021/07/05 02:49:00;0.00;0.00;0.62;0.00;0.00;0.62;8.73;5.97;;;26.60;39.40;;;;;;2276842;61;20651;-65
2021/07/05 02:51:27;0.00;0.00;0.62;0.00;0.00;0.62;5.13;4.57;;;26.50;39.20;;;;;;2277113;60;20356;-67
2021/07/05 02:53:53;0.00;0.00;0.62;0.00;0.00;0.62;7.57;4.80;;;26.50;39.30;;;;;;2277831;61;20377;-62
2021/07/05 02:56:21;0.00;0.00;0.62;0.00;0.00;0.62;7.80;4.90;;;26.50;39.40;;;;;;2277453;60;20379;-64
2021/07/05 02:58:48;0.00;0.00;0.62;0.00;0.00;0.62;6.60;4.43;;;26.50;39.30;;;;;;2276921;60;20657;-64
2021/07/05 03:01:14;0.00;0.00;0.62;0.00;0.00;0.62;10.00;5.70;;;26.50;39.40;;;;;;2277698;61;20355;-64
2021/07/05 03:03:41;0.00;0.00;0.62;0.00;0.00;0.62;5.67;4.87;;;26.50;39.30;;;;;;2277360;60;20373;-63
2021/07/05 03:06:09;0.00;0.00;0.62;0.00;0.00;0.62;5.87;5.20;;;26.50;39.30;;;;;;2277252;61;20347;-61
2021/07/05 03:08:36;0.00;0.00;0.62;0.00;0.00;0.62;7.30;5.00;;;26.50;39.30;;;;;;2277743;61;20356;-65
2021/07/05 03:11:03;0.00;0.00;0.62;0.00;0.00;0.62;5.00;4.37;;;26.50;39.30;;;;;;2277184;61;20367;-66
2021/07/05 03:13:29;0.00;0.00;0.62;0.00;0.00;0.62;10.03;5.33;;;26.40;39.30;;;;;;2277219;60;20371;-67
2021/07/05 03:15:56;0.00;0.00;0.62;0.00;0.00;0.62;4.77;4.27;;;26.40;39.30;;;;;;2277702;61;20642;-65
2021/07/05 03:18:22;0.00;0.00;0.62;0.00;0.00;0.62;5.13;4.63;;;26.40;39.30;;;;;;2277370;61;20559;-67
2021/07/05 03:20:52;0.00;0.00;0.62;0.00;0.00;0.62;5.60;4.10;;;26.40;39.30;;;;;;2277265;61;20351;-64
2021/07/05 03:23:21;0.00;0.00;0.62;0.00;0.00;0.62;7.07;4.40;;;26.40;39.30;;;;;;2277634;61;20367;-68
2021/07/05 03:25:48;0.00;0.00;0.62;0.00;0.00;0.62;6.87;4.20;;;26.40;39.30;;;;;;2277573;60;20691;-68
2021/07/05 03:28:17;0.00;0.00;0.62;0.00;0.00;0.62;5.13;4.17;;;26.40;39.30;;;;;;2277279;60;20347;-65
2021/07/05 03:30:46;0.00;0.00;0.62;0.00;0.00;0.62;6.73;4.80;;;26.50;39.30;;;;;;2278295;61;20689;-64
2021/07/05 03:33:13;0.00;0.00;0.62;0.00;0.00;0.62;7.07;5.77;;;26.50;39.30;;;;;;2278064;60;20374;-63
2021/07/05 03:35:41;0.00;0.00;0.62;0.00;0.00;0.62;6.53;5.80;;;26.40;39.20;;;;;;2277889;61;20458;-66
2021/07/05 03:38:08;0.00;0.00;0.62;0.00;0.00;0.62;6.97;6.00;;;26.50;39.10;;;;;;2278308;61;20692;-64
2021/07/05 03:40:38;0.00;0.00;0.62;0.00;0.00;0.62;7.47;5.40;;;26.40;39.00;;;;;;2278140;61;20438;-64
2021/07/05 03:43:07;0.00;0.00;0.62;0.00;0.00;0.62;6.07;4.80;;;26.30;39.00;;;;;;2277624;61;20390;-65
2021/07/05 03:45:37;0.00;0.00;0.62;0.00;0.00;0.62;6.80;3.70;;;26.30;39.00;;;;;;2277908;61;20347;-65
2021/07/05 03:48:05;0.00;0.00;0.62;0.00;0.00;0.62;5.23;4.73;;;26.30;39.10;;;;;;2278134;61;20350;-65
2021/07/05 03:50:34;0.00;0.00;0.62;0.00;0.00;0.62;4.53;4.13;;;26.30;39.10;;;;;;2277626;60;20392;-67
2021/07/05 03:53:01;0.00;0.00;0.62;0.00;0.00;0.62;4.40;4.00;;;26.30;39.20;;;;;;2278227;61;20371;-68
2021/07/05 03:55:29;0.00;0.00;0.62;0.00;0.00;0.62;4.63;4.10;;;26.30;39.20;;;;;;2278061;60;20387;-65
2021/07/05 03:57:59;0.00;0.00;0.62;0.00;0.00;0.62;6.23;3.90;;;26.30;39.20;;;;;;2277111;60;20358;-64
2021/07/05 04:00:30;0.00;0.00;0.62;0.00;0.00;0.62;3.70;3.00;;;26.30;39.20;;;;;;2278308;61;20566;-65
2021/07/05 04:02:57;0.00;0.00;0.62;0.00;0.00;0.62;4.77;4.37;;;26.30;39.20;;;;;;2278017;61;20715;-62
2021/07/05 04:05:23;0.00;0.00;0.62;0.00;0.00;0.62;6.80;5.37;;;26.30;39.10;;;;;;2277624;61;20358;-66
2021/07/05 04:07:50;0.00;0.00;0.62;0.00;0.00;0.62;6.60;4.93;;;26.30;39.60;;;;;;2278183;61;20349;-66
2021/07/05 04:10:18;0.00;0.00;0.62;0.00;0.00;0.62;5.43;4.60;;;26.30;39.10;;;;;;2277764;60;20247;-66
2021/07/05 04:12:45;0.00;0.00;0.62;0.00;0.00;0.62;5.83;5.10;;;26.30;39.00;;;;;;2277082;61;20712;-65
2021/07/05 04:15:14;0.00;0.00;0.62;0.00;0.00;0.62;5.03;4.63;;;26.30;39.00;;;;;;2278347;61;20706;-66
2021/07/05 04:17:40;0.00;0.00;0.62;0.00;0.00;0.62;8.40;4.77;;;26.30;39.00;;;;;;2278003;60;20359;-64
2021/07/05 04:20:11;0.00;0.00;0.62;0.00;0.00;0.62;7.90;4.77;;;26.20;38.90;;;;;;2277727;61;20585;-62
2021/07/05 04:22:38;0.00;0.00;0.62;0.00;0.00;0.62;4.40;4.00;;;26.20;38.90;;;;;;2278234;61;20744;-65
2021/07/05 04:25:08;0.00;0.00;0.62;0.00;0.00;0.62;5.07;4.13;;;26.20;39.00;;;;;;2277840;61;20421;-67
2021/07/05 04:27:34;0.00;0.00;0.62;0.00;0.00;0.62;5.03;4.13;;;26.10;39.00;;;;;;2277636;61;20352;-64
2021/07/05 04:30:02;0.00;0.00;0.62;0.00;0.00;0.62;5.53;3.80;;;26.10;39.00;;;;;;2278207;61;20646;-66
2021/07/05 04:32:30;0.00;0.00;0.62;0.00;0.00;0.62;6.60;4.10;;;26.10;39.00;;;;;;2277811;60;20768;-65
2021/07/05 04:34:57;0.00;0.00;0.62;0.00;0.00;0.62;7.53;4.10;;;26.00;39.00;;;;;;2277532;61;20362;-68
2021/07/05 04:37:23;0.00;0.00;0.62;0.00;0.00;0.62;7.37;3.87;;;26.00;39.10;;;;;;2278061;60;20469;-67
2021/07/05 04:39:50;0.00;0.00;0.62;0.00;0.00;0.62;3.43;3.13;;;26.00;39.10;;;;;;2277939;61;20362;-67
2021/07/05 04:42:17;0.00;0.00;0.62;0.00;0.00;0.62;4.40;3.03;;;26.00;39.10;;;;;;2276955;60;20738;-69
2021/07/05 04:44:45;0.00;0.00;0.62;0.00;0.00;0.62;7.60;3.40;;;26.00;39.10;;;;;;2278395;61;20355;-69
2021/07/05 04:47:12;0.00;0.00;0.62;0.00;0.00;0.62;9.37;4.17;;;26.00;39.20;;;;;;2277913;60;20358;-72
2021/07/05 04:49:40;0.00;0.00;0.62;0.00;0.00;0.62;4.53;3.43;;;26.00;39.20;;;;;;2277487;61;20356;-64
2021/07/05 04:52:06;0.00;0.00;0.62;0.00;0.00;0.62;7.40;3.83;;;26.00;39.30;;;;;;2278160;61;20356;-67
2021/07/05 04:54:33;0.00;0.00;0.62;0.00;0.00;0.62;5.03;2.97;;;26.10;39.30;;;;;;2277913;61;20363;-66
2021/07/05 04:57:00;0.00;0.00;0.62;0.00;0.00;0.62;5.63;3.90;;;26.10;39.10;;;;;;2277498;61;20375;-68
2021/07/05 04:59:26;0.00;0.00;0.62;0.00;0.00;0.62;6.73;3.83;;;26.10;38.90;;;;;;2278186;61;20430;-64
2021/07/05 05:01:53;0.00;0.00;0.62;0.00;0.00;0.62;4.60;3.20;;;26.00;38.70;;;;;;2277820;61;20347;-70
2021/07/05 05:04:21;0.00;0.00;0.62;0.00;0.00;0.62;4.07;3.13;;;26.00;38.70;;;;;;2277635;61;20387;-66
2021/07/05 05:06:48;0.00;0.00;0.62;0.00;0.00;0.62;6.13;3.27;;;26.00;38.70;;;;;;2278228;61;20574;-65
2021/07/05 05:09:17;0.00;0.00;0.62;0.00;0.00;0.62;6.60;3.47;;;26.00;38.70;;;;;;2277683;61;20356;-65
2021/07/05 05:11:43;0.00;0.00;0.62;0.00;0.00;0.62;5.97;3.50;;;26.00;38.70;;;;;;2277370;61;20748;-66
2021/07/05 05:14:10;0.00;0.00;0.62;0.00;0.00;0.62;5.77;3.57;;;26.00;38.60;;;;;;2278169;61;20411;-66
2021/07/05 05:16:37;0.00;0.00;0.62;0.00;0.00;0.62;6.40;3.57;;;25.90;38.60;;;;;;2277723;60;20402;-66
2021/07/05 05:19:03;0.00;0.00;0.62;0.00;0.00;0.62;5.83;4.00;;;25.90;38.60;;;;;;2277413;61;20355;-65
2021/07/05 05:21:32;0.00;0.00;0.62;0.00;0.00;0.62;5.30;3.70;;;25.90;38.60;;;;;;2277139;61;20392;-71
2021/07/05 05:24:01;0.00;0.00;0.62;0.00;0.00;0.62;6.07;3.67;;;25.80;38.60;;;;;;2277464;61;20375;-66
2021/07/05 05:26:28;0.00;0.00;0.62;0.00;0.00;0.62;3.90;2.70;;;25.80;38.70;;;;;;2278081;60;20613;-66
2021/07/05 05:28:55;0.00;0.00;0.62;0.00;0.00;0.62;6.13;2.37;;;25.80;38.80;;;;;;2278025;61;20351;-66
2021/07/05 05:31:22;0.00;0.00;0.62;0.00;0.00;0.62;5.40;3.07;;;25.80;38.80;;;;;;2277829;61;20379;-66
2021/07/05 05:33:49;0.00;0.00;0.62;0.00;0.00;0.62;4.30;2.70;;;25.80;38.80;;;;;;2277989;61;20371;-66
2021/07/05 05:36:16;0.00;0.00;0.62;0.00;0.00;0.62;2.90;2.20;;;25.70;38.80;;;;;;2278103;61;20414;-66
2021/07/05 05:38:48;0.00;0.00;0.62;0.00;0.00;0.62;5.30;2.60;;;25.70;38.80;;;;;;2277865;61;20630;-66
2021/07/05 05:41:16;0.00;0.00;0.62;0.00;0.00;0.62;3.87;1.97;;;25.70;38.80;;;;;;2277876;61;20577;-66
2021/07/05 05:43:43;0.00;0.00;0.62;0.00;0.00;0.62;5.33;2.13;;;25.70;38.90;;;;;;2278040;60;20463;-66
2021/07/05 05:46:15;0.00;0.00;0.62;0.00;0.00;0.62;1.83;1.53;;;25.70;38.90;;;;;;2277986;61;20422;-66
2021/07/05 05:48:42;0.00;0.00;0.62;0.00;0.00;0.62;2.30;1.60;;;25.70;38.90;;;;;;2277886;60;20389;-66
2021/07/05 05:51:10;0.00;0.00;0.62;0.00;0.00;0.62;4.93;1.80;;;25.70;39.50;;;;;;2277817;61;20359;-66
2021/07/05 05:53:36;0.00;0.00;0.62;0.00;0.00;0.62;2.70;2.00;;;25.70;38.80;;;;;;2277833;61;20372;-66
2021/07/05 05:56:04;0.00;0.00;0.62;0.00;0.00;0.62;3.53;1.90;;;25.70;38.70;;;;;;2277825;60;20388;-68
2021/07/05 05:58:36;0.00;0.00;0.62;0.00;0.00;0.62;3.30;2.03;;;25.70;38.60;;;;;;2278071;61;20399;-68
2021/07/05 06:01:03;0.00;0.00;0.62;0.00;0.00;0.62;3.37;1.63;;;25.70;38.70;;;;;;2277813;60;20675;-66
2021/07/05 06:03:30;0.00;0.00;0.62;0.00;0.00;0.62;2.37;1.60;;;25.70;38.50;;;;;;2277815;61;20394;-67
2021/07/05 06:05:56;0.00;0.00;0.62;0.00;0.00;0.62;1.87;1.40;;;25.70;38.40;;;;;;2278052;61;20358;-67
2021/07/05 06:08:23;0.00;0.00;0.62;0.00;0.00;0.62;2.70;1.50;;;25.70;38.40;;;;;;2277730;61;20383;-67
2021/07/05 06:10:50;0.00;0.00;0.62;0.00;0.00;0.62;2.60;1.30;;;25.60;38.40;;;;;;2277310;60;20362;-67
2021/07/05 06:13:16;0.00;0.00;0.62;0.00;0.00;0.62;3.20;2.10;;;25.60;38.40;;;;;;2277946;61;20371;-67
2021/07/05 06:15:44;0.00;0.00;0.62;0.00;0.00;0.62;2.60;1.40;;;25.60;38.50;;;;;;2277766;60;20411;-67
2021/07/05 06:18:11;0.00;0.00;0.62;0.00;0.00;0.62;3.90;1.77;;;25.60;38.60;;;;;;2277706;60;20360;-67
2021/07/05 06:20:37;0.00;0.00;0.62;0.00;0.00;0.62;2.40;1.70;;;25.50;38.50;;;;;;2278111;61;20347;-67
2021/07/05 06:23:13;0.00;0.00;0.62;0.00;0.00;0.62;2.23;1.80;;;25.50;39.20;;;;;;2277760;61;20368;-67
2021/07/05 06:25:39;0.00;0.00;0.62;0.00;0.00;0.62;2.77;1.83;;;25.50;38.70;;;;;;2277377;60;20468;-67
2021/07/05 06:28:08;0.00;0.00;0.62;0.00;0.00;0.62;2.63;1.50;;;25.50;38.70;;;;;;2278050;61;20680;-67
2021/07/05 06:30:34;0.00;0.00;0.62;0.00;0.00;0.62;2.43;1.80;;;25.40;38.60;;;;;;2277815;61;20461;-68
2021/07/05 06:33:03;0.00;0.00;0.62;0.00;0.00;0.62;2.97;1.80;;;25.40;38.80;;;;;;2277689;60;20455;-68
2021/07/05 06:35:29;0.00;0.00;0.62;0.00;0.00;0.62;4.37;2.00;;;25.40;38.80;;;;;;2276819;61;20392;-67
2021/07/05 06:37:56;0.00;0.00;0.62;0.00;0.00;0.62;4.90;2.20;;;25.40;38.90;;;;;;2277551;60;20359;-67
2021/07/05 06:40:25;0.00;0.00;0.62;0.00;0.00;0.62;3.67;2.00;;;25.40;39.00;;;;;;2277354;61;20355;-68
2021/07/05 06:42:52;0.00;0.00;0.62;0.00;0.00;0.62;5.27;2.30;;;25.30;39.00;;;;;;2277919;61;20375;-68
2021/07/05 06:45:19;0.00;0.00;0.62;0.00;0.00;0.62;3.40;2.17;;;25.30;39.10;;;;;;2277705;61;20390;-67
2021/07/05 06:47:45;0.00;0.00;0.62;0.00;0.00;0.62;3.13;2.40;;;25.30;39.20;;;;;;2277203;60;20462;-68
2021/07/05 06:50:13;0.00;0.00;0.62;0.00;0.00;0.62;4.63;1.90;;;25.30;39.30;;;;;;2277950;61;20793;-67
2021/07/05 06:52:40;0.00;0.00;0.62;0.00;0.00;0.62;5.30;1.83;;;25.30;39.30;;;;;;2277599;61;20425;-68
2021/07/05 06:55:08;0.00;0.00;0.62;0.00;0.00;0.62;2.40;2.20;;;25.30;39.40;;;;;;2277723;61;20355;-67
2021/07/05 06:57:34;0.00;0.00;0.62;0.00;0.00;0.62;3.47;2.60;;;25.30;39.30;;;;;;2277545;61;20383;-68
2021/07/05 07:00:08;0.00;0.00;0.62;0.00;0.00;0.62;3.50;2.10;;;25.30;39.30;;;;;;2277658;61;20625;-67
2021/07/05 07:02:36;0.00;0.00;0.62;0.00;0.00;0.62;3.23;2.30;;;25.30;39.30;;;;;;2278278;61;20398;-67
2021/07/05 07:05:03;0.00;0.00;0.62;0.00;0.00;0.62;2.57;1.50;;;25.30;39.30;;;;;;2278784;60;20352;-67
2021/07/05 07:07:32;0.00;0.00;0.62;0.00;0.00;0.62;2.77;2.20;;;25.30;39.30;;;;;;2278252;61;20354;-67
2021/07/05 07:09:58;0.00;0.00;0.62;0.00;0.00;0.62;2.10;1.80;;;25.30;39.40;;;;;;2278360;60;20762;-68
2021/07/05 07:12:25;0.00;0.00;0.62;0.00;0.00;0.62;3.50;2.17;;;25.40;39.30;;;;;;2278541;61;20371;-68
2021/07/05 07:14:51;0.00;0.00;0.62;0.00;0.00;0.62;5.00;2.37;;;25.40;39.30;;;;;;2278342;61;20362;-68
2021/07/05 07:17:37;0.00;0.00;0.62;0.00;0.00;0.62;3.37;2.00;;;25.40;39.30;;;;;;2278467;60;20450;-67
2021/07/05 07:20:07;0.00;0.00;0.62;0.00;0.00;0.62;4.90;2.50;;;25.40;39.30;;;;;;2278694;61;20358;-67
2021/07/05 07:22:36;0.00;0.00;0.62;0.00;0.00;0.62;2.93;1.70;;;25.40;39.30;;;;;;2278173;61;20454;-67
2021/07/05 07:25:03;0.00;0.00;0.62;0.00;0.00;0.62;2.63;2.03;;;25.40;39.40;;;;;;2278508;60;20474;-67
2021/07/05 07:27:30;0.00;0.00;0.62;0.00;0.00;0.62;3.07;2.20;;;25.40;39.30;;;;;;2278639;60;20765;-67
2021/07/05 07:29:57;0.00;0.00;0.62;0.00;0.00;0.62;3.03;1.90;;;25.40;39.30;;;;;;2278241;61;20358;-67
2021/07/05 07:32:24;0.00;0.00;0.62;0.00;0.00;0.62;3.37;2.20;;;25.40;39.20;;;;;;2278270;61;20374;-67
2021/07/05 07:34:50;0.00;0.00;0.62;0.00;0.00;0.62;2.50;2.03;;;25.40;39.10;;;;;;2278601;61;20403;-68
2021/07/05 07:37:17;0.00;0.00;0.62;0.00;0.00;0.62;6.23;2.33;;;25.40;39.10;;;;;;2278288;61;20380;-67
2021/07/05 07:39:48;0.00;0.00;0.62;0.00;0.00;0.62;5.40;2.40;;;25.50;39.00;;;;;;2278442;61;20374;-67
2021/07/05 07:42:15;0.00;0.00;0.62;0.00;0.00;0.62;3.77;2.40;;;25.50;39.00;;;;;;2278402;61;20703;-67
2021/07/05 07:44:41;0.00;0.00;0.62;0.00;0.00;0.62;2.47;2.03;;;25.50;39.00;;;;;;2277838;61;20398;-66
2021/07/05 07:47:08;0.00;0.00;0.62;0.00;0.00;0.62;3.00;2.10;;;25.50;39.00;;;;;;2278291;61;20348;-67
2021/07/05 07:49:34;0.00;0.00;0.62;0.00;0.00;0.62;2.20;2.00;;;25.50;39.00;;;;;;2278500;60;20351;-67
2021/07/05 07:52:02;0.00;0.00;0.62;0.00;0.00;0.62;2.33;2.07;;;25.50;39.00;;;;;;2278078;61;20435;-67
2021/07/05 07:54:29;0.00;0.00;0.62;0.00;0.00;0.62;2.50;2.20;;;25.50;39.00;;;;;;2278318;61;20362;-67
2021/07/05 07:56:57;0.00;0.00;0.62;0.00;0.00;0.62;2.80;2.20;;;25.60;39.00;;;;;;2278391;61;20743;-67
2021/07/05 07:59:24;0.00;0.00;0.62;0.00;0.00;0.62;2.50;2.00;;;25.60;39.00;;;;;;2278281;61;20395;-67
2021/07/05 08:01:50;0.00;0.00;0.62;0.00;0.00;0.62;1.70;1.60;;;25.60;38.80;;;;;;2278176;61;20359;-67
2021/07/05 08:04:17;0.00;0.00;0.62;0.00;0.00;0.62;2.20;1.40;;;25.60;38.70;;;;;;2278388;60;20351;-67
2021/07/05 08:06:44;0.00;0.00;0.62;0.00;0.00;0.62;2.83;1.87;;;25.70;38.70;;;;;;2278222;61;20343;-66
2021/07/05 08:09:11;0.00;0.00;0.62;0.00;0.00;0.62;2.17;1.90;;;25.70;38.70;;;;;;2277728;61;20441;-67
2021/07/05 08:11:38;0.00;0.00;0.62;0.00;0.00;0.62;2.60;1.97;;;25.70;38.60;;;;;;2278271;61;20366;-67
2021/07/05 08:14:07;0.00;0.00;0.62;0.00;0.00;0.62;2.63;1.87;;;25.70;38.60;;;;;;2277973;61;20379;-67
2021/07/05 08:16:35;0.00;0.00;0.62;0.00;0.00;0.62;2.40;2.03;;;25.70;38.60;;;;;;2278192;61;20379;-69
2021/07/05 08:19:01;0.00;0.00;0.62;0.00;0.00;0.62;2.17;1.60;;;25.70;38.40;;;;;;2278428;61;20371;-67
2021/07/05 08:21:28;0.00;0.00;0.62;0.00;0.00;0.62;4.63;1.90;;;25.70;38.50;;;;;;2278098;61;20426;-67
2021/07/05 08:23:54;0.00;0.00;0.62;0.00;0.00;0.62;2.83;2.30;;;25.70;38.40;;;;;;2278202;60;20760;-67
2021/07/05 08:26:21;0.00;0.00;0.62;0.00;0.00;0.62;3.57;2.30;;;25.80;38.50;;;;;;2277861;61;20344;-67
2021/07/05 08:28:48;0.00;0.00;0.62;0.00;0.00;0.62;2.33;2.13;;;25.80;38.50;;;;;;2278017;61;20370;-67
2021/07/05 08:31:16;0.00;0.00;0.62;0.00;0.00;0.62;2.70;2.50;;;25.80;38.50;;;;;;2277983;61;20363;-67
2021/07/05 08:33:43;0.00;0.00;0.62;0.00;0.00;0.62;4.00;2.43;;;25.80;38.60;;;;;;2278394;61;20401;-67
2021/07/05 08:36:09;0.00;0.00;0.62;0.00;0.00;0.62;3.30;2.37;;;25.80;38.60;;;;;;2278082;61;20374;-67
2021/07/05 08:38:36;0.00;0.00;0.62;0.00;0.00;0.62;3.83;2.53;;;25.80;38.70;;;;;;2278098;61;20571;-66
2021/07/05 08:41:03;0.00;0.00;0.62;0.00;0.00;0.62;3.00;2.70;;;25.80;38.70;;;;;;2277850;61;20348;-67
2021/07/05 08:43:30;0.00;0.00;0.62;0.00;0.00;0.62;3.40;2.47;;;25.80;38.80;;;;;;2278242;61;20395;-67
2021/07/05 08:46:03;0.00;0.00;0.62;0.00;0.00;0.62;3.20;1.90;;;25.90;38.90;;;;;;2278020;61;20344;-67
2021/07/05 08:48:35;0.00;0.00;0.62;0.00;0.00;0.62;2.50;2.30;;;25.90;38.90;;;;;;2278221;61;20351;-67
2021/07/05 08:51:07;0.00;0.00;0.62;0.00;0.00;0.62;3.77;2.10;;;25.90;38.90;;;;;;2277935;61;20700;-68
2021/07/05 08:53:34;0.00;0.00;0.62;0.00;0.00;0.62;3.20;2.30;;;25.90;38.80;;;;;;2278040;61;20383;-67
2021/07/05 08:56:01;0.00;0.00;0.62;0.00;0.00;0.62;3.90;2.10;;;25.90;38.80;;;;;;2278284;60;20457;-67
2021/07/05 08:58:27;0.00;0.00;0.62;0.00;0.00;0.62;7.00;2.10;;;25.90;38.70;;;;;;2278042;61;20402;-67
2021/07/05 09:00:54;0.00;0.00;0.62;0.00;0.00;0.62;2.87;2.00;;;25.90;38.60;;;;;;2278074;60;20378;-67
2021/07/05 09:03:23;0.00;0.00;0.62;0.00;0.00;0.62;2.23;2.03;;;25.90;38.60;;;;;;2277737;60;20407;-67
2021/07/05 09:06:11;0.00;0.00;0.62;0.00;0.00;0.62;2.70;2.40;;;25.90;38.60;;;;;;2277998;61;20687;-67
2021/07/05 09:08:40;0.00;0.00;0.62;0.00;0.00;0.62;2.23;2.03;;;25.90;38.60;;;;;;2278002;61;20355;-67
2021/07/05 09:11:09;0.00;0.00;0.62;0.00;0.00;0.62;2.77;2.03;;;26.00;38.70;;;;;;2278163;61;20374;-67
2021/07/05 09:13:47;0.00;0.00;0.62;0.00;0.00;0.62;3.30;2.17;;;26.00;38.60;;;;;;2277948;60;20371;-67
2021/07/05 09:16:27;0.00;0.00;0.62;0.00;0.00;0.62;2.53;2.33;;;25.90;38.70;;;;;;2277600;61;20794;-67
2021/07/05 09:18:54;0.00;0.00;0.62;0.00;0.00;0.62;2.80;2.10;;;25.90;38.70;;;;;;2278265;61;20707;-67
2021/07/05 09:21:25;0.00;0.00;0.62;0.00;0.00;0.62;2.40;1.90;;;26.00;38.70;;;;;;2277665;61;20355;-67
2021/07/05 09:23:57;0.00;0.00;0.62;0.00;0.00;0.62;3.77;2.00;;;25.90;38.80;;;;;;2278223;60;20473;-66
2021/07/05 09:26:30;0.00;0.00;0.62;0.00;0.00;0.62;2.40;2.17;;;25.90;38.80;;;;;;2278256;60;20358;-67
2021/07/05 09:28:58;0.00;0.00;0.62;0.00;0.00;0.62;3.20;1.97;;;25.90;38.90;;;;;;2277612;61;20571;-67
2021/07/05 09:31:37;0.00;0.00;0.62;0.00;0.00;0.62;3.00;2.10;;;25.90;38.90;;;;;;2278140;61;20587;-67
2021/07/05 09:34:12;0.00;0.00;0.62;0.00;0.00;0.62;2.10;1.90;;;25.90;38.90;;;;;;2278162;61;20431;-67
2021/07/05 09:36:41;0.00;0.00;0.62;0.00;0.00;0.62;2.50;2.27;;;25.90;39.10;;;;;;2277652;61;20750;-67
2021/07/05 09:39:14;0.00;0.00;0.62;0.00;0.00;0.62;2.37;1.80;;;25.90;39.20;;;;;;2278215;61;20567;-67
2021/07/05 09:41:42;0.00;0.00;0.62;0.00;0.00;0.62;2.07;1.70;;;25.90;39.30;;;;;;2277984;60;20584;-67
2021/07/05 09:44:14;0.00;0.00;0.62;0.00;0.00;0.62;2.10;1.63;;;25.90;39.30;;;;;;2277782;61;20375;-68